Whitebluff, Mississippi
Current Conditions -  °F | °C
As of 6:53 AM on Friday 19 Dec 2014 (Local Time) from KMCB Reporting Station
Moderate Rain Moderate Rain  
Wind Chill: 46°   Ceiling: 1500
Heat Index: 49°   Visibility: 4mi
Dew Point: 46°   Wind: 7mph
Humidity: 90%   Direction: 60°ENE
Pressure: 30.15"   Gusts: NA
Location:  31.274°N, 89.9542°W
Report Text: KMCB 191253Z AUTO 06006KT 4SM RA BR BKN015 OVC070 09/08 A3015 RMK AO2 LTG DSNT E-S PRESRR SLP210 P0028 T00940078 $
Loading
Personal Weather Stations






























Interactive Weather Map New forecast layout! Learn more

10-Day Weather Forecast

Advertisements
Track Severe Weather on mobile